Maersk Lirquen — VRKB8 — position and weather

sailwx.info

Track history (hours):
 
Tides and Currents Weather Stations Pressure Air Temp Water Temp Dewpoint Dewpoint Depression Visibility Wind Speed Wind Dir Waves Ship Positions

Maersk Lirquen

Last reported at 2018-May-09 02:41 UTC. Time now 2018-May-21 17:00 UTC.
Position N 41°37' E 141°16'.
Warning: this ship's position is 12 days out of date.

Length 300 m; draft 13.3 m.

Type: Ship (hazmat cat A). MMSI: 477423500.

Date/timePositionNaut miles runAvg speedWind from/ knotsBaromVisibWave heightAir tempDewpointWater temp
2018-May-09 02:41N 41°37' E 141°16'318.5
2018-May-09 02:30N 41°37' E 141°12'1019.5
2018-May-09 02:00N 41°37' E 140°59'918.8
2018-May-09 01:31N 41°34' E 140°47'1020.2
2018-May-09 01:00N 41°28' E 140°36'1020.7
2018-May-09 00:30N 41°23' E 140°24'1020.0
2018-May-09 00:00N 41°17' E 140°12'63618.7
2018-May-07 14:01N 35°04' E 129°17'017.9
2018-May-07 14:00N 35°04' E 129°17'1018.1
2018-May-07 13:29N 34°59' E 129°07'55 1.4
2018-May-05 21:52N 34°12' E 128°33'412.1
2018-May-05 21:29N 34°09' E 128°29'1212.2
2018-May-05 20:32N 34°01' E 128°19'012.4
2018-May-05 20:30N 34°00' E 128°19'5311.5
2018-May-05 15:53N 33°25' E 127°31'511.0
2018-May-05 15:28N 33°22' E 127°27'511.2
2018-May-05 15:00N 33°18' E 127°23'611.1
2018-May-05 14:30N 33°15' E 127°18'511.0
2018-May-05 14:00N 33°11' E 127°13'1210.9
2018-May-05 12:56N 33°02' E 127°03'24011.9
2018-May-04 16:42N 30°41' E 123°15'512.1
2018-May-04 16:19N 30°38' E 123°10'411.9
2018-May-04 16:00N 30°36' E 123°07'611.7
2018-May-04 15:30N 30°33' E 123°01'611.3
2018-May-04 15:00N 30°31' E 122°55'1211.7
2018-May-04 13:59N 30°29' E 122°41'1412.4
2018-May-04 12:52N 30°31' E 122°25'513.5
2018-May-04 12:28N 30°32' E 122°19'511.8
2018-May-04 12:00N 30°33' E 122°13'9 0.6
2018-May-03 22:29N 30°37' E 122°04'0 0.0
2018-May-03 21:57N 30°37' E 122°04'0 0.0
2018-May-03 21:22N 30°37' E 122°04'0 0.0
2018-May-03 19:35N 30°37' E 122°04'0 0.2
2018-May-03 19:30N 30°37' E 122°04'1 1.3
2018-May-03 18:59N 30°37' E 122°04'2 3.8
2018-May-03 18:30N 30°36' E 122°06'713.4
2018-May-03 18:00N 30°33' E 122°13'510.1
2018-May-03 17:28N 30°33' E 122°19'4 9.4
2018-May-03 17:00N 30°32' E 122°24'5 9.4
2018-May-03 16:30N 30°32' E 122°30'5 9.4
2018-May-03 15:59N 30°32' E 122°35'4 9.2
2018-May-03 15:30N 30°31' E 122°40'4 7.7
2018-May-03 14:58N 30°27' E 122°41'  
2018-May-01 07:53N 24°17' E 119°10'611.4
2018-May-01 07:23N 24°13' E 119°05'411.2
2018-May-01 07:00N 24°10' E 119°02'611.2
2018-May-01 06:29N 24°06' E 118°57'511.1
2018-May-01 06:00N 24°02' E 118°53'511.1
2018-May-01 05:30N 23°59' E 118°48'611.2
2018-May-01 04:59N 23°55' E 118°43'611.3
2018-May-01 04:30N 23°52' E 118°38'711.5
2018-May-01 03:56N 23°48' E 118°33'511.8
2018-May-01 03:30N 23°46' E 118°28'612.0
2018-May-01 02:59N 23°42' E 118°23'612.3
2018-May-01 02:27N 23°38' E 118°17'712.5
2018-May-01 01:55N 23°35' E 118°10'512.9
2018-May-01 01:30N 23°32' E 118°05'713.0
2018-May-01 00:58N 23°29' E 117°58'613.0
2018-May-01 00:30N 23°26' E 117°53'612.7
2018-May-01 00:00N 23°23' E 117°47'612.5
2018-Apr-30 23:30N 23°19' E 117°41'612.0
2018-Apr-30 23:00N 23°16' E 117°36'611.6
2018-Apr-30 22:30N 23°12' E 117°31'611.2
2018-Apr-30 22:00N 23°08' E 117°26'  
Track history (hours):
 
Tides and Currents Weather Stations Pressure Air Temp Water Temp Dewpoint Dewpoint Depression Visibility Wind Speed Wind Dir Waves Ship Positions

Maersk Lirquen

Last reported at 2018-May-09 02:41 UTC. Time now 2018-May-21 17:00 UTC.
Position N 41°37' E 141°16'.
Warning: this ship's position is 12 days out of date.

Length 300 m; draft 13.3 m.

Type: Ship (hazmat cat A). MMSI: 477423500.

Date/timePositionNaut miles runAvg speedWind from/ knotsBaromVisibWave heightAir tempDewpointWater temp
2018-May-09 02:41N 41°37' E 141°16'318.5
2018-May-09 02:30N 41°37' E 141°12'1019.5
2018-May-09 02:00N 41°37' E 140°59'918.8
2018-May-09 01:31N 41°34' E 140°47'1020.2
2018-May-09 01:00N 41°28' E 140°36'1020.7
2018-May-09 00:30N 41°23' E 140°24'1020.0
2018-May-09 00:00N 41°17' E 140°12'63618.7
2018-May-07 14:01N 35°04' E 129°17'017.9
2018-May-07 14:00N 35°04' E 129°17'1018.1
2018-May-07 13:29N 34°59' E 129°07'55 1.4
2018-May-05 21:52N 34°12' E 128°33'412.1
2018-May-05 21:29N 34°09' E 128°29'1212.2
2018-May-05 20:32N 34°01' E 128°19'012.4
2018-May-05 20:30N 34°00' E 128°19'5311.5
2018-May-05 15:53N 33°25' E 127°31'511.0
2018-May-05 15:28N 33°22' E 127°27'511.2
2018-May-05 15:00N 33°18' E 127°23'611.1
2018-May-05 14:30N 33°15' E 127°18'511.0
2018-May-05 14:00N 33°11' E 127°13'1210.9
2018-May-05 12:56N 33°02' E 127°03'24011.9
2018-May-04 16:42N 30°41' E 123°15'512.1
2018-May-04 16:19N 30°38' E 123°10'411.9
2018-May-04 16:00N 30°36' E 123°07'611.7
2018-May-04 15:30N 30°33' E 123°01'611.3
2018-May-04 15:00N 30°31' E 122°55'1211.7
2018-May-04 13:59N 30°29' E 122°41'1412.4
2018-May-04 12:52N 30°31' E 122°25'513.5
2018-May-04 12:28N 30°32' E 122°19'511.8
2018-May-04 12:00N 30°33' E 122°13'9 0.6
2018-May-03 22:29N 30°37' E 122°04'0 0.0
2018-May-03 21:57N 30°37' E 122°04'0 0.0
2018-May-03 21:22N 30°37' E 122°04'0 0.0
2018-May-03 19:35N 30°37' E 122°04'0 0.2
2018-May-03 19:30N 30°37' E 122°04'1 1.3
2018-May-03 18:59N 30°37' E 122°04'2 3.8
2018-May-03 18:30N 30°36' E 122°06'713.4
2018-May-03 18:00N 30°33' E 122°13'510.1
2018-May-03 17:28N 30°33' E 122°19'4 9.4
2018-May-03 17:00N 30°32' E 122°24'5 9.4
2018-May-03 16:30N 30°32' E 122°30'5 9.4
2018-May-03 15:59N 30°32' E 122°35'4 9.2
2018-May-03 15:30N 30°31' E 122°40'4 7.7
2018-May-03 14:58N 30°27' E 122°41'  
2018-May-01 07:53N 24°17' E 119°10'611.4
2018-May-01 07:23N 24°13' E 119°05'411.2
2018-May-01 07:00N 24°10' E 119°02'611.2
2018-May-01 06:29N 24°06' E 118°57'511.1
2018-May-01 06:00N 24°02' E 118°53'511.1
2018-May-01 05:30N 23°59' E 118°48'611.2
2018-May-01 04:59N 23°55' E 118°43'611.3
2018-May-01 04:30N 23°52' E 118°38'711.5
2018-May-01 03:56N 23°48' E 118°33'511.8
2018-May-01 03:30N 23°46' E 118°28'612.0
2018-May-01 02:59N 23°42' E 118°23'612.3
2018-May-01 02:27N 23°38' E 118°17'712.5
2018-May-01 01:55N 23°35' E 118°10'512.9
2018-May-01 01:30N 23°32' E 118°05'713.0
2018-May-01 00:58N 23°29' E 117°58'613.0
2018-May-01 00:30N 23°26' E 117°53'612.7
2018-May-01 00:00N 23°23' E 117°47'612.5
2018-Apr-30 23:30N 23°19' E 117°41'612.0
2018-Apr-30 23:00N 23°16' E 117°36'611.6
2018-Apr-30 22:30N 23°12' E 117°31'611.2
2018-Apr-30 22:00N 23°08' E 117°26'  

Dump ship's entire track history